createdAt,value
2018-12-27T00:02:07.252Z,67.49
2018-12-27T00:04:36.554Z,67.15
2018-12-27T00:07:05.881Z,66.70
2018-12-27T00:09:35.181Z,66.62
2018-12-27T00:12:04.526Z,66.49
2018-12-27T00:14:33.857Z,65.80
2018-12-27T00:17:03.188Z,65.67
2018-12-27T00:19:32.511Z,65.71
2018-12-27T00:22:01.837Z,65.67
2018-12-27T00:24:31.123Z,65.77
2018-12-27T00:27:00.474Z,65.64
2018-12-27T00:29:29.843Z,65.76
2018-12-27T00:31:59.321Z,65.43
2018-12-27T00:34:28.815Z,65.53
2018-12-27T00:36:58.298Z,65.48
2018-12-27T00:39:27.737Z,65.17
2018-12-27T00:41:57.200Z,65.52
2018-12-27T00:44:26.691Z,65.59
2018-12-27T00:46:56.126Z,65.27
2018-12-27T00:49:25.559Z,65.30
2018-12-27T00:51:55.025Z,65.15
2018-12-27T00:54:24.678Z,65.10
2018-12-27T00:56:54.107Z,65.20
2018-12-27T00:59:23.574Z,65.28
2018-12-27T01:01:53.038Z,65.18
2018-12-27T01:04:22.475Z,65.00
2018-12-27T01:06:51.951Z,65.11
2018-12-27T01:09:21.428Z,65.09
2018-12-27T01:11:50.882Z,64.83
2018-12-27T01:14:20.351Z,64.97
2018-12-27T01:16:49.811Z,64.83
2018-12-27T01:19:19.257Z,64.71
2018-12-27T01:21:48.773Z,64.91
2018-12-27T01:24:18.246Z,64.94
2018-12-27T01:26:47.692Z,65.02
2018-12-27T01:29:17.244Z,64.78
2018-12-27T01:31:50.567Z,64.67
2018-12-27T01:34:17.870Z,64.74
2018-12-27T01:36:47.351Z,64.71
2018-12-27T01:39:16.793Z,64.90
2018-12-27T01:41:46.277Z,64.95
2018-12-27T01:44:15.718Z,65.11
2018-12-27T01:46:45.181Z,65.40
2018-12-27T01:49:14.617Z,65.32
2018-12-27T01:51:44.176Z,65.52
2018-12-27T01:54:13.530Z,65.66
2018-12-27T01:56:42.971Z,65.63
2018-12-27T01:59:12.478Z,65.72
2018-12-27T02:01:41.947Z,65.69
2018-12-27T02:04:11.376Z,65.57
2018-12-27T02:06:40.919Z,65.41
2018-12-27T02:09:10.428Z,65.22
2018-12-27T02:11:39.872Z,65.12
2018-12-27T02:14:09.328Z,65.34
2018-12-27T02:16:38.772Z,65.05
2018-12-27T02:19:08.214Z,65.20
2018-12-27T02:21:37.670Z,65.05
2018-12-27T02:24:07.118Z,65.02
2018-12-27T02:26:36.774Z,65.09
2018-12-27T02:29:06.234Z,64.98
2018-12-27T02:31:37.169Z,65.12
2018-12-27T02:34:06.769Z,65.12
2018-12-27T02:36:36.215Z,65.26
2018-12-27T02:39:07.365Z,65.54
2018-12-27T02:41:36.777Z,65.70
2018-12-27T02:44:06.276Z,65.50
2018-12-27T02:46:35.718Z,65.54
2018-12-27T02:49:05.138Z,65.65
2018-12-27T02:51:34.614Z,65.79
2018-12-27T02:54:04.062Z,65.98
2018-12-27T02:56:33.513Z,65.98
2018-12-27T02:59:03.006Z,66.19
2018-12-27T03:01:32.484Z,66.18
2018-12-27T03:04:01.970Z,66.41
2018-12-27T03:06:31.457Z,66.38
2018-12-27T03:09:00.913Z,66.46
2018-12-27T03:11:30.408Z,66.57
2018-12-27T03:13:59.849Z,66.72
2018-12-27T03:16:29.295Z,66.83
2018-12-27T03:18:58.778Z,67.04
2018-12-27T03:21:28.247Z,67.12
2018-12-27T03:23:57.745Z,67.24
2018-12-27T03:26:27.222Z,67.16
2018-12-27T03:28:56.670Z,67.48
2018-12-27T03:31:26.169Z,67.58
2018-12-27T03:33:55.625Z,67.65
2018-12-27T03:36:25.106Z,67.66
2018-12-27T03:38:54.547Z,68.03
2018-12-27T03:41:23.999Z,68.23
2018-12-27T03:43:53.446Z,68.25
2018-12-27T03:46:22.937Z,68.50
2018-12-27T03:48:52.418Z,68.71
2018-12-27T03:51:21.873Z,68.84
2018-12-27T03:53:51.368Z,68.66
2018-12-27T03:56:20.807Z,68.96
2018-12-27T03:58:50.245Z,68.98
2018-12-27T04:01:19.756Z,68.90
2018-12-27T04:03:49.205Z,68.83
2018-12-27T04:06:18.675Z,69.01
2018-12-27T04:08:48.130Z,68.91
2018-12-27T04:11:17.574Z,68.70
2018-12-27T04:13:47.023Z,68.60
2018-12-27T04:16:16.296Z,68.66
2018-12-27T04:18:45.746Z,68.72
2018-12-27T04:21:15.024Z,68.66
2018-12-27T04:23:44.449Z,68.59
2018-12-27T04:26:14.655Z,68.59
2018-12-27T04:28:43.979Z,68.71
2018-12-27T04:31:13.666Z,68.91
2018-12-27T04:33:43.477Z,69.09
2018-12-27T04:36:13.324Z,68.83
2018-12-27T04:38:42.685Z,69.00
2018-12-27T04:41:11.996Z,69.20
2018-12-27T04:43:41.492Z,69.13
2018-12-27T04:46:10.836Z,69.18
2018-12-27T04:48:40.177Z,69.37
2018-12-27T04:51:09.497Z,69.58
2018-12-27T04:53:38.807Z,69.59
2018-12-27T04:56:08.137Z,69.55
2018-12-27T04:58:37.503Z,69.76
2018-12-27T05:01:06.841Z,69.77
2018-12-27T05:03:36.170Z,70.01
2018-12-27T05:06:05.474Z,69.91
2018-12-27T05:08:34.883Z,70.20
2018-12-27T05:11:04.299Z,70.39
2018-12-27T05:13:33.629Z,70.40
2018-12-27T05:16:02.963Z,70.37
2018-12-27T05:18:32.295Z,70.44
2018-12-27T05:21:01.599Z,70.43
2018-12-27T05:23:30.917Z,70.55
2018-12-27T05:26:00.228Z,70.69
2018-12-27T05:28:29.524Z,70.67
2018-12-27T05:30:58.930Z,70.64
2018-12-27T05:33:28.254Z,70.67
2018-12-27T05:35:57.636Z,71.04
2018-12-27T05:38:26.954Z,71.23
2018-12-27T05:40:56.290Z,71.31
2018-12-27T05:43:25.647Z,71.22
2018-12-27T05:45:54.981Z,71.10
2018-12-27T05:48:24.336Z,71.30
2018-12-27T05:50:53.710Z,71.14
2018-12-27T05:53:23.082Z,71.31
2018-12-27T05:55:52.428Z,71.36
2018-12-27T05:58:21.737Z,71.41
2018-12-27T06:00:51.176Z,71.63
2018-12-27T06:03:20.494Z,71.54
2018-12-27T06:05:49.793Z,71.70
2018-12-27T06:08:19.162Z,71.50
2018-12-27T06:10:48.498Z,71.31
2018-12-27T06:13:17.840Z,71.28
2018-12-27T06:15:47.199Z,71.35
2018-12-27T06:18:16.547Z,71.35
2018-12-27T06:20:45.898Z,71.52
2018-12-27T06:23:15.244Z,71.49
2018-12-27T06:25:44.598Z,71.38
2018-12-27T06:28:13.908Z,71.41
2018-12-27T06:30:43.316Z,71.53
2018-12-27T06:33:12.642Z,71.52
2018-12-27T06:35:41.946Z,71.75
2018-12-27T06:38:11.263Z,71.43
2018-12-27T06:40:40.598Z,71.64
2018-12-27T06:43:09.956Z,71.60
2018-12-27T06:45:39.307Z,71.97
2018-12-27T06:48:08.809Z,71.95
2018-12-27T06:50:38.164Z,72.11
2018-12-27T06:53:07.515Z,72.26
2018-12-27T06:55:36.850Z,72.51
2018-12-27T06:58:06.195Z,72.97
2018-12-27T07:00:35.667Z,73.40
2018-12-27T07:03:04.964Z,73.52
2018-12-27T07:05:34.247Z,73.98
2018-12-27T07:08:03.632Z,73.91
2018-12-27T07:10:32.988Z,74.03
2018-12-27T07:13:02.331Z,74.29
2018-12-27T07:15:31.782Z,74.28
2018-12-27T07:18:01.215Z,74.51
2018-12-27T07:20:30.524Z,74.50
2018-12-27T07:22:59.901Z,74.82
2018-12-27T07:25:29.241Z,74.90
2018-12-27T07:27:58.575Z,74.66
2018-12-27T07:30:28.106Z,74.93
2018-12-27T07:32:57.456Z,75.06
2018-12-27T07:35:26.898Z,75.01
2018-12-27T07:37:56.221Z,75.09
2018-12-27T07:40:25.681Z,75.18
2018-12-27T07:42:55.039Z,75.12
2018-12-27T07:45:24.351Z,75.35
2018-12-27T07:47:53.678Z,75.44
2018-12-27T07:50:23.089Z,75.67
2018-12-27T07:52:52.487Z,75.77
2018-12-27T07:55:23.783Z,75.88
2018-12-27T07:57:53.064Z,75.84
2018-12-27T08:00:22.498Z,75.96
2018-12-27T08:02:52.001Z,75.84
2018-12-27T08:05:21.341Z,76.00
2018-12-27T08:07:50.707Z,76.00
2018-12-27T08:10:20.015Z,75.96
2018-12-27T08:12:49.418Z,76.01
2018-12-27T08:15:18.761Z,75.90
2018-12-27T08:17:48.075Z,75.89
2018-12-27T08:20:17.427Z,76.14
2018-12-27T08:22:46.918Z,76.01
2018-12-27T08:25:17.347Z,75.93
2018-12-27T08:27:46.647Z,75.82
2018-12-27T08:30:16.050Z,75.53
2018-12-27T08:32:45.361Z,75.58
2018-12-27T08:35:14.737Z,75.79
2018-12-27T08:37:44.045Z,75.42
2018-12-27T08:40:13.390Z,75.40
2018-12-27T08:42:42.734Z,75.08
2018-12-27T08:45:12.043Z,74.82
2018-12-27T08:47:41.367Z,74.67
2018-12-27T08:50:10.665Z,74.57
2018-12-27T08:52:40.057Z,74.39
2018-12-27T08:55:09.402Z,74.90
2018-12-27T08:57:38.733Z,74.45
2018-12-27T09:00:08.289Z,74.38
2018-12-27T09:02:37.615Z,73.83
2018-12-27T09:05:07.597Z,74.24
2018-12-27T09:07:36.972Z,74.17
2018-12-27T09:10:06.779Z,74.21
2018-12-27T09:12:36.256Z,74.00
2018-12-27T09:15:05.560Z,73.94
2018-12-27T09:17:35.129Z,73.62
2018-12-27T09:20:04.885Z,73.40
2018-12-27T09:22:34.241Z,73.41
2018-12-27T09:25:04.081Z,73.10
2018-12-27T09:27:35.418Z,73.15
2018-12-27T09:30:06.945Z,73.38
2018-12-27T09:32:36.345Z,73.33
2018-12-27T09:35:06.093Z,73.52
2018-12-27T09:37:35.435Z,73.55
2018-12-27T09:40:04.916Z,73.58
2018-12-27T09:42:34.417Z,73.97
2018-12-27T09:45:03.743Z,74.10
2018-12-27T09:47:32.988Z,74.05
2018-12-27T09:50:02.374Z,73.99
2018-12-27T09:52:31.869Z,74.27
2018-12-27T09:55:01.232Z,74.05
2018-12-27T09:57:30.592Z,74.09
2018-12-27T09:59:59.926Z,73.98
2018-12-27T10:02:29.235Z,73.71
2018-12-27T10:04:58.699Z,73.79
2018-12-27T10:07:28.012Z,73.84
2018-12-27T10:09:57.363Z,73.80
2018-12-27T10:12:26.792Z,73.99
2018-12-27T10:14:56.175Z,74.04
2018-12-27T10:17:25.502Z,73.82
2018-12-27T10:19:54.844Z,73.49
2018-12-27T10:22:24.307Z,73.29
2018-12-27T10:24:53.633Z,73.46
2018-12-27T10:27:22.957Z,73.26
2018-12-27T10:29:52.353Z,73.50
2018-12-27T10:32:22.018Z,73.53
2018-12-27T10:34:51.381Z,74.13
2018-12-27T10:37:20.709Z,73.92
2018-12-27T10:39:53.564Z,73.80
2018-12-27T10:42:22.950Z,74.00
2018-12-27T10:44:52.270Z,73.79
2018-12-27T10:47:21.575Z,73.39
2018-12-27T10:49:50.966Z,73.25
2018-12-27T10:52:20.273Z,72.46
2018-12-27T10:54:49.666Z,72.13
2018-12-27T10:57:19.161Z,71.86
2018-12-27T10:59:48.619Z,72.42
2018-12-27T11:02:17.953Z,72.42
2018-12-27T11:04:47.297Z,72.67
2018-12-27T11:07:16.711Z,72.96
2018-12-27T11:09:46.491Z,72.92
2018-12-27T11:12:15.967Z,72.85
2018-12-27T11:14:45.361Z,72.42
2018-12-27T11:17:14.692Z,72.81
2018-12-27T11:19:44.012Z,72.67
2018-12-27T11:22:13.634Z,72.85
2018-12-27T11:24:42.934Z,72.67
2018-12-27T11:27:12.358Z,72.67
2018-12-27T11:29:41.706Z,73.00
2018-12-27T11:32:11.031Z,73.03
2018-12-27T11:34:40.512Z,73.13
2018-12-27T11:37:09.862Z,73.06
2018-12-27T11:39:39.218Z,73.06
2018-12-27T11:42:08.579Z,72.88
2018-12-27T11:44:37.948Z,72.67
2018-12-27T11:47:07.298Z,72.67
2018-12-27T11:49:36.610Z,72.84
2018-12-27T11:52:05.959Z,72.83
2018-12-27T11:54:35.291Z,72.92
2018-12-27T11:57:04.660Z,72.69
2018-12-27T11:59:34.026Z,72.54
2018-12-27T12:02:03.380Z,72.11
2018-12-27T12:04:32.745Z,72.33
2018-12-27T12:07:02.100Z,72.70
2018-12-27T12:09:31.493Z,72.65
2018-12-27T12:12:00.925Z,72.83
2018-12-27T12:14:30.263Z,73.01
2018-12-27T12:16:59.700Z,73.01
2018-12-27T12:19:29.085Z,72.58
2018-12-27T12:21:58.422Z,72.72
2018-12-27T12:24:27.743Z,72.85
2018-12-27T12:26:57.084Z,72.96
2018-12-27T12:29:26.449Z,72.95
2018-12-27T12:31:55.789Z,72.87
2018-12-27T12:34:25.220Z,73.02
2018-12-27T12:36:54.963Z,73.19
2018-12-27T12:39:24.642Z,73.16
2018-12-27T12:41:53.977Z,73.09
2018-12-27T12:44:23.331Z,73.11
2018-12-27T12:46:53.165Z,72.86
2018-12-27T12:49:22.560Z,72.41
2018-12-27T12:51:51.937Z,72.30
2018-12-27T12:54:21.278Z,72.58
2018-12-27T12:56:50.642Z,72.56
2018-12-27T12:59:20.082Z,72.68
2018-12-27T13:01:49.449Z,73.10
2018-12-27T13:04:18.817Z,73.18
2018-12-27T13:06:48.156Z,73.28
2018-12-27T13:09:17.514Z,73.44
2018-12-27T13:11:46.882Z,73.38
2018-12-27T13:14:16.215Z,73.41
2018-12-27T13:16:45.570Z,73.37
2018-12-27T13:19:14.921Z,73.68
2018-12-27T13:21:44.395Z,73.66
2018-12-27T13:24:13.763Z,73.36
2018-12-27T13:26:43.120Z,73.65
2018-12-27T13:29:12.451Z,73.66
2018-12-27T13:31:41.837Z,73.36
2018-12-27T13:34:11.297Z,73.41
2018-12-27T13:36:40.706Z,73.41
2018-12-27T13:39:10.085Z,73.45
2018-12-27T13:41:39.452Z,73.35
2018-12-27T13:44:08.754Z,73.35
2018-12-27T13:46:38.125Z,73.53
2018-12-27T13:49:07.605Z,73.64
2018-12-27T13:51:36.927Z,73.90
2018-12-27T13:54:06.299Z,73.67
2018-12-27T13:56:35.607Z,73.84
2018-12-27T13:59:04.966Z,73.71
2018-12-27T14:01:34.298Z,73.66
2018-12-27T14:04:03.650Z,74.07
2018-12-27T14:06:33.058Z,74.02
2018-12-27T14:09:02.458Z,74.00
2018-12-27T14:11:31.816Z,73.89
2018-12-27T14:14:01.198Z,74.05
2018-12-27T14:16:30.570Z,73.89
2018-12-27T14:18:59.910Z,73.79
2018-12-27T14:21:29.362Z,73.87
2018-12-27T14:23:58.699Z,73.69
2018-12-27T14:26:28.047Z,73.83
2018-12-27T14:28:57.357Z,73.94
2018-12-27T14:31:26.704Z,74.21
2018-12-27T14:33:56.062Z,74.20
2018-12-27T14:36:25.493Z,74.24
2018-12-27T14:38:54.888Z,74.16
2018-12-27T14:41:24.243Z,74.62
2018-12-27T14:43:53.666Z,74.71
2018-12-27T14:46:23.057Z,74.83
2018-12-27T14:48:52.382Z,74.87
2018-12-27T14:51:21.738Z,75.02
2018-12-27T14:53:51.085Z,75.30
2018-12-27T14:56:20.428Z,75.30
2018-12-27T14:58:49.842Z,75.56
2018-12-27T15:01:19.215Z,75.54
2018-12-27T15:03:48.523Z,75.75
2018-12-27T15:06:17.835Z,75.96
2018-12-27T15:08:47.205Z,76.05
2018-12-27T15:11:16.542Z,76.37
2018-12-27T15:13:45.888Z,76.19
2018-12-27T15:16:15.248Z,76.39
2018-12-27T15:18:44.615Z,76.39
2018-12-27T15:21:13.953Z,76.71
2018-12-27T15:23:43.311Z,76.82
2018-12-27T15:26:12.648Z,77.06
2018-12-27T15:28:41.989Z,77.08
2018-12-27T15:31:11.313Z,77.14
2018-12-27T15:33:40.640Z,77.13
2018-12-27T15:36:09.982Z,76.94
2018-12-27T15:38:39.326Z,77.02
2018-12-27T15:41:08.726Z,77.29
2018-12-27T15:43:38.069Z,77.44
2018-12-27T15:46:07.561Z,77.47
2018-12-27T15:48:36.948Z,77.33
2018-12-27T15:51:06.310Z,77.18
2018-12-27T15:53:35.711Z,77.21
2018-12-27T15:56:05.083Z,77.16
2018-12-27T15:58:34.547Z,77.09
2018-12-27T16:01:03.983Z,77.30
2018-12-27T16:03:33.473Z,77.37
2018-12-27T16:06:02.838Z,77.31
2018-12-27T16:08:32.282Z,77.26
2018-12-27T16:11:01.662Z,77.19
2018-12-27T16:13:31.042Z,77.08
2018-12-27T16:16:00.385Z,76.94
2018-12-27T16:18:29.783Z,76.72
2018-12-27T16:20:59.149Z,76.79
2018-12-27T16:23:31.384Z,76.85
2018-12-27T16:26:00.743Z,76.60
2018-12-27T16:28:30.080Z,76.64
2018-12-27T16:30:59.449Z,76.94
2018-12-27T16:33:28.826Z,76.78
2018-12-27T16:35:58.169Z,76.90
2018-12-27T16:38:27.571Z,76.80
2018-12-27T16:40:56.922Z,77.03
2018-12-27T16:43:26.334Z,77.07
2018-12-27T16:45:55.737Z,77.05
2018-12-27T16:48:26.906Z,76.84
2018-12-27T16:50:56.236Z,76.90
2018-12-27T16:53:25.597Z,76.85
2018-12-27T16:55:54.973Z,76.78
2018-12-27T16:58:24.314Z,76.80
2018-12-27T17:00:53.655Z,77.02
2018-12-27T17:03:23.064Z,77.06
2018-12-27T17:05:52.439Z,77.07
2018-12-27T17:08:21.823Z,77.23
2018-12-27T17:10:56.171Z,77.12
2018-12-27T17:13:25.584Z,77.24
2018-12-27T17:15:54.930Z,77.19
2018-12-27T17:18:24.537Z,76.99
2018-12-27T17:20:53.870Z,77.05
2018-12-27T17:23:23.191Z,77.13
2018-12-27T17:25:52.551Z,77.64
2018-12-27T17:28:21.955Z,77.14
2018-12-27T17:30:51.318Z,76.80
2018-12-27T17:33:20.641Z,76.54
2018-12-27T17:35:49.949Z,76.63
2018-12-27T17:38:19.371Z,76.72
2018-12-27T17:40:48.690Z,76.52
2018-12-27T17:43:19.125Z,77.21
2018-12-27T17:45:48.761Z,76.54
2018-12-27T17:48:18.126Z,76.12
2018-12-27T17:50:47.489Z,75.83
2018-12-27T17:53:16.950Z,75.83
2018-12-27T17:55:46.697Z,75.59
2018-12-27T17:58:16.030Z,75.64
2018-12-27T18:00:45.388Z,75.11
2018-12-27T18:03:14.717Z,75.76
2018-12-27T18:05:44.018Z,75.25
2018-12-27T18:08:13.324Z,74.91
2018-12-27T18:10:42.689Z,74.85
2018-12-27T18:13:12.024Z,74.58
2018-12-27T18:15:41.361Z,74.48
2018-12-27T18:18:10.733Z,74.39
2018-12-27T18:20:40.070Z,74.38
2018-12-27T18:23:09.975Z,74.36
2018-12-27T18:25:39.326Z,74.27
2018-12-27T18:28:08.632Z,74.13
2018-12-27T18:30:37.981Z,74.25
2018-12-27T18:33:07.332Z,74.03
2018-12-27T18:35:36.642Z,73.94
2018-12-27T18:38:05.987Z,73.90
2018-12-27T18:40:35.295Z,73.80
2018-12-27T18:43:04.655Z,73.61
2018-12-27T18:45:34.029Z,73.76
2018-12-27T18:48:03.430Z,73.96
2018-12-27T18:50:33.097Z,73.95
2018-12-27T18:53:02.481Z,73.73
2018-12-27T18:55:34.539Z,73.99
2018-12-27T18:58:04.306Z,74.21
2018-12-27T19:00:33.665Z,74.11
2018-12-27T19:03:02.976Z,74.25
2018-12-27T19:05:34.160Z,74.27
2018-12-27T19:08:03.862Z,74.17
2018-12-27T19:10:33.170Z,74.25
2018-12-27T19:13:09.695Z,74.33
2018-12-27T19:15:45.559Z,74.26
2018-12-27T19:18:24.947Z,74.15
2018-12-27T19:20:59.407Z,74.27
2018-12-27T19:23:29.692Z,74.28
2018-12-27T19:25:59.037Z,74.22
2018-12-27T19:28:28.431Z,74.07
2018-12-27T19:30:57.806Z,74.11
2018-12-27T19:33:27.179Z,74.02
2018-12-27T19:35:56.552Z,74.02
2018-12-27T19:38:26.771Z,74.10
2018-12-27T19:40:56.578Z,74.04
2018-12-27T19:43:26.597Z,74.01
2018-12-27T19:46:05.690Z,74.04
2018-12-27T19:48:34.976Z,73.90
2018-12-27T19:51:04.306Z,74.14
2018-12-27T19:53:33.648Z,74.04
2018-12-27T19:56:03.079Z,74.25
2018-12-27T19:58:32.451Z,74.31
2018-12-27T20:01:04.126Z,74.69
2018-12-27T20:03:33.514Z,74.47
2018-12-27T20:06:03.065Z,74.39
2018-12-27T20:08:32.388Z,74.43
2018-12-27T20:11:04.408Z,74.23
2018-12-27T20:13:33.799Z,74.17
2018-12-27T20:16:14.122Z,74.26
2018-12-27T20:19:03.643Z,74.55
2018-12-27T20:21:34.540Z,74.35
2018-12-27T20:24:03.986Z,74.32
2018-12-27T20:26:33.333Z,74.48
2018-12-27T20:29:02.882Z,74.55
2018-12-27T20:31:32.266Z,74.67
2018-12-27T20:34:01.655Z,74.59
2018-12-27T20:36:31.021Z,74.71
2018-12-27T20:39:01.026Z,74.79
2018-12-27T20:41:30.364Z,74.89
2018-12-27T20:43:59.775Z,74.90
2018-12-27T20:46:30.432Z,74.96
2018-12-27T20:48:59.851Z,74.89
2018-12-27T20:51:29.214Z,74.74
2018-12-27T20:53:58.582Z,74.69
2018-12-27T20:56:28.007Z,74.61
2018-12-27T20:58:57.453Z,74.60
2018-12-27T21:01:26.812Z,74.60
2018-12-27T21:03:56.190Z,74.79
2018-12-27T21:06:25.578Z,74.84
2018-12-27T21:08:54.895Z,74.67
2018-12-27T21:11:24.214Z,74.61
2018-12-27T21:13:53.871Z,74.63
2018-12-27T21:16:23.194Z,74.59
2018-12-27T21:18:52.589Z,74.65
2018-12-27T21:21:21.991Z,74.69
2018-12-27T21:23:51.991Z,74.71
2018-12-27T21:26:21.453Z,74.77
2018-12-27T21:28:50.864Z,74.83
2018-12-27T21:31:20.378Z,74.99
2018-12-27T21:33:49.726Z,75.25
2018-12-27T21:36:19.065Z,75.46
2018-12-27T21:38:48.407Z,75.61
2018-12-27T21:41:17.796Z,75.59
2018-12-27T21:43:47.132Z,75.72
2018-12-27T21:46:16.436Z,75.78
2018-12-27T21:48:45.783Z,75.77
2018-12-27T21:51:15.135Z,75.80
2018-12-27T21:53:44.547Z,75.85
2018-12-27T21:56:13.835Z,75.82
2018-12-27T21:58:43.136Z,75.74
2018-12-27T22:01:12.627Z,75.87
2018-12-27T22:03:41.981Z,75.90
2018-12-27T22:06:11.321Z,75.56
2018-12-27T22:08:41.034Z,75.31
2018-12-27T22:11:10.432Z,75.11
2018-12-27T22:13:39.768Z,75.01
2018-12-27T22:16:09.314Z,75.01
2018-12-27T22:18:38.596Z,74.93
2018-12-27T22:21:07.921Z,74.93
2018-12-27T22:23:37.599Z,74.71
2018-12-27T22:26:06.893Z,74.33
2018-12-27T22:28:36.278Z,74.13
2018-12-27T22:31:05.614Z,74.14
2018-12-27T22:33:35.016Z,74.27
2018-12-27T22:36:04.371Z,74.33
2018-12-27T22:38:35.780Z,74.27
2018-12-27T22:41:04.809Z,74.19
2018-12-27T22:43:37.540Z,74.29
2018-12-27T22:46:09.170Z,74.24
2018-12-27T22:48:38.603Z,74.13
2018-12-27T22:51:07.999Z,74.46
2018-12-27T22:53:37.347Z,74.33
2018-12-27T22:56:06.704Z,75.65
2018-12-27T22:58:35.989Z,72.56
2018-12-27T23:01:05.879Z,72.18
2018-12-27T23:03:35.190Z,72.52
2018-12-27T23:06:04.523Z,73.24
2018-12-27T23:08:33.979Z,73.70
2018-12-27T23:11:06.548Z,74.08
2018-12-27T23:13:36.181Z,74.22
2018-12-27T23:16:05.602Z,74.29
2018-12-27T23:18:35.090Z,74.24
2018-12-27T23:21:04.731Z,74.21
2018-12-27T23:23:34.120Z,74.30
2018-12-27T23:26:03.447Z,74.35
2018-12-27T23:28:32.963Z,74.39
2018-12-27T23:31:02.611Z,74.46
2018-12-27T23:33:32.016Z,74.56
2018-12-27T23:36:01.324Z,74.64
2018-12-27T23:38:30.699Z,74.61
2018-12-27T23:41:00.065Z,74.64
2018-12-27T23:43:29.440Z,74.70
2018-12-27T23:45:58.835Z,74.78
2018-12-27T23:48:28.239Z,74.96
2018-12-27T23:50:57.649Z,75.06
2018-12-27T23:53:27.007Z,75.15
2018-12-27T23:55:56.326Z,75.04
2018-12-27T23:58:25.656Z,75.09
